createdAt,value
2018-11-13T00:00:19.821Z,20.70
2018-11-13T00:02:47.501Z,18.13
2018-11-13T00:05:14.584Z,18.27
2018-11-13T00:07:41.937Z,16.43
2018-11-13T00:10:10.027Z,18.00
2018-11-13T00:12:37.141Z,19.87
2018-11-13T00:15:04.296Z,16.80
2018-11-13T00:17:31.437Z,15.87
2018-11-13T00:19:58.555Z,14.17
2018-11-13T00:22:25.652Z,14.53
2018-11-13T00:24:52.726Z,15.00
2018-11-13T00:27:19.886Z,15.30
2018-11-13T00:29:46.932Z,14.93
2018-11-13T00:32:14.016Z,14.50
2018-11-13T00:34:41.161Z,13.50
2018-11-13T00:37:08.252Z,14.37
2018-11-13T00:39:35.342Z,15.57
2018-11-13T00:42:02.436Z,12.50
2018-11-13T00:44:29.527Z,12.07
2018-11-13T00:46:56.610Z,12.73
2018-11-13T00:49:23.873Z,12.00
2018-11-13T00:51:50.787Z,12.23
2018-11-13T00:54:17.860Z,11.57
2018-11-13T00:56:45.040Z,11.33
2018-11-13T00:59:12.146Z,11.23
2018-11-13T01:01:39.227Z,11.27
2018-11-13T01:04:06.369Z,10.50
2018-11-13T01:06:33.472Z,11.33
2018-11-13T01:09:00.565Z,13.47
2018-11-13T01:11:27.657Z,9.93
2018-11-13T01:13:54.761Z,9.20
2018-11-13T01:16:21.868Z,9.67
2018-11-13T01:18:49.000Z,10.97
2018-11-13T01:21:16.096Z,10.83
2018-11-13T01:23:43.194Z,11.07
2018-11-13T01:26:10.292Z,9.67
2018-11-13T01:28:37.396Z,9.90
2018-11-13T01:31:05.319Z,12.03
2018-11-13T01:33:32.400Z,11.80
2018-11-13T01:35:59.488Z,11.13
2018-11-13T01:38:26.576Z,10.80
2018-11-13T01:40:53.640Z,10.43
2018-11-13T01:43:20.716Z,12.97
2018-11-13T01:45:47.823Z,11.83
2018-11-13T01:48:14.900Z,11.53
2018-11-13T01:50:41.993Z,12.00
2018-11-13T01:53:09.111Z,11.53
2018-11-13T01:55:36.210Z,12.30
2018-11-13T01:58:03.329Z,10.93
2018-11-13T02:00:30.403Z,11.53
2018-11-13T02:02:57.482Z,11.40
2018-11-13T02:05:25.373Z,10.77
2018-11-13T02:07:53.420Z,11.83
2018-11-13T02:10:20.703Z,13.40
2018-11-13T02:12:48.132Z,13.60
2018-11-13T02:15:15.807Z,12.67
2018-11-13T02:17:42.914Z,11.73
2018-11-13T02:20:13.594Z,10.83
2018-11-13T02:22:40.817Z,14.43
2018-11-13T02:25:10.144Z,13.40
2018-11-13T02:27:37.253Z,12.17
2018-11-13T02:30:05.312Z,11.33
2018-11-13T02:32:32.408Z,12.10
2018-11-13T02:34:59.504Z,12.90
2018-11-13T02:37:26.592Z,13.20
2018-11-13T02:39:53.684Z,13.13
2018-11-13T02:42:20.820Z,12.37
2018-11-13T02:44:47.884Z,13.03
2018-11-13T02:47:14.980Z,12.93
2018-11-13T02:49:42.248Z,13.40
2018-11-13T02:52:09.332Z,13.20
2018-11-13T02:54:36.423Z,13.07
2018-11-13T02:57:03.556Z,13.20
2018-11-13T02:59:30.624Z,15.07
2018-11-13T03:01:57.692Z,12.73
2018-11-13T03:04:24.773Z,14.40
2018-11-13T03:06:51.848Z,15.27
2018-11-13T03:09:18.970Z,13.37
2018-11-13T03:11:46.048Z,13.27
2018-11-13T03:14:13.125Z,14.30
2018-11-13T03:16:40.229Z,15.23
2018-11-13T03:19:07.328Z,12.27
2018-11-13T03:21:34.396Z,14.57
2018-11-13T03:24:01.598Z,13.97
2018-11-13T03:26:28.668Z,15.90
2018-11-13T03:28:55.772Z,13.40
2018-11-13T03:31:22.945Z,13.33
2018-11-13T03:33:49.953Z,15.47
2018-11-13T03:36:17.039Z,14.50
2018-11-13T03:38:44.136Z,13.57
2018-11-13T03:41:11.244Z,13.30
2018-11-13T03:43:38.305Z,13.10
2018-11-13T03:46:05.412Z,14.97
2018-11-13T03:48:32.845Z,15.63
2018-11-13T03:50:59.924Z,17.07
2018-11-13T03:53:27.004Z,14.67
2018-11-13T03:55:54.165Z,15.10
2018-11-13T03:58:21.283Z,17.97
2018-11-13T04:00:48.364Z,15.63
2018-11-13T04:03:15.455Z,15.93
2018-11-13T04:05:42.525Z,16.90
2018-11-13T04:08:09.643Z,16.37
2018-11-13T04:10:36.732Z,19.23
2018-11-13T04:13:04.198Z,15.90
2018-11-13T04:15:31.320Z,16.50
2018-11-13T04:17:58.405Z,17.13
2018-11-13T04:20:25.500Z,17.50
2018-11-13T04:22:52.588Z,19.37
2018-11-13T04:25:19.711Z,17.40
2018-11-13T04:27:46.808Z,17.77
2018-11-13T04:30:16.609Z,18.33
2018-11-13T04:32:43.769Z,17.27
2018-11-13T04:35:12.060Z,21.90
2018-11-13T04:37:39.153Z,18.17
2018-11-13T04:40:10.432Z,19.87
2018-11-13T04:42:37.524Z,20.20
2018-11-13T04:45:06.474Z,20.80
2018-11-13T04:47:33.556Z,21.03
2018-11-13T04:50:00.644Z,21.70
2018-11-13T04:52:27.728Z,22.30
2018-11-13T04:54:54.800Z,21.97
2018-11-13T04:57:21.892Z,24.40
2018-11-13T04:59:48.992Z,20.17
2018-11-13T05:02:16.106Z,20.20
2018-11-13T05:04:43.197Z,21.50
2018-11-13T05:07:10.304Z,20.93
2018-11-13T05:09:37.388Z,23.10
2018-11-13T05:12:04.548Z,21.40
2018-11-13T05:14:31.645Z,20.87
2018-11-13T05:16:58.736Z,23.80
2018-11-13T05:19:25.837Z,21.63
2018-11-13T05:21:52.911Z,24.13
2018-11-13T05:24:19.976Z,23.40
2018-11-13T05:26:47.068Z,22.97
2018-11-13T05:29:14.208Z,23.53
2018-11-13T05:31:41.299Z,24.57
2018-11-13T05:34:08.396Z,24.03
2018-11-13T05:36:35.513Z,23.80
2018-11-13T05:39:03.932Z,25.87
2018-11-13T05:41:31.115Z,24.30
2018-11-13T05:43:58.128Z,25.87
2018-11-13T05:46:25.216Z,24.03
2018-11-13T05:48:52.285Z,24.13
2018-11-13T05:51:19.388Z,22.60
2018-11-13T05:53:46.464Z,21.20
2018-11-13T05:56:13.556Z,25.47
2018-11-13T05:58:40.680Z,22.63
2018-11-13T06:01:08.046Z,28.50
2018-11-13T06:03:35.145Z,22.07
2018-11-13T06:06:02.241Z,23.70
2018-11-13T06:08:29.383Z,24.83
2018-11-13T06:10:56.413Z,22.70
2018-11-13T06:13:23.493Z,23.03
2018-11-13T06:15:50.592Z,20.70
2018-11-13T06:18:17.769Z,22.63
2018-11-13T06:20:44.829Z,20.53
2018-11-13T06:23:11.955Z,21.13
2018-11-13T06:25:39.032Z,22.13
2018-11-13T06:28:06.124Z,20.67
2018-11-13T06:30:33.222Z,23.47
2018-11-13T06:33:00.320Z,21.77
2018-11-13T06:35:27.404Z,20.07
2018-11-13T06:37:54.491Z,24.30
2018-11-13T06:40:21.620Z,19.70
2018-11-13T06:42:48.708Z,21.40
2018-11-13T06:45:18.108Z,22.30
2018-11-13T06:47:45.960Z,21.17
2018-11-13T06:50:13.080Z,18.97
2018-11-13T06:52:40.238Z,21.23
2018-11-13T06:55:41.980Z,19.17
2018-11-13T06:58:09.051Z,17.43
2018-11-13T07:00:36.149Z,20.83
2018-11-13T07:03:03.269Z,17.37
2018-11-13T07:05:30.377Z,19.23
2018-11-13T07:07:57.478Z,20.13
2018-11-13T07:10:25.645Z,21.87
2018-11-13T07:12:53.514Z,23.13
2018-11-13T07:15:22.822Z,19.33
2018-11-13T07:17:51.309Z,18.60
2018-11-13T07:20:19.576Z,19.10
2018-11-13T07:22:46.708Z,17.47
2018-11-13T07:25:13.888Z,18.07
2018-11-13T07:27:41.671Z,20.17
2018-11-13T07:30:12.319Z,16.97
2018-11-13T07:32:39.932Z,16.33
2018-11-13T07:35:08.945Z,20.37
2018-11-13T07:37:36.308Z,19.43
2018-11-13T07:40:03.552Z,18.50
2018-11-13T07:42:30.629Z,15.47
2018-11-13T07:44:57.721Z,18.53
2018-11-13T07:47:25.011Z,15.83
2018-11-13T07:49:51.926Z,16.90
2018-11-13T07:52:19.021Z,21.47
2018-11-13T07:54:46.105Z,16.57
2018-11-13T07:57:13.217Z,14.20
2018-11-13T07:59:40.336Z,12.80
2018-11-13T08:02:07.444Z,16.87
2018-11-13T08:04:35.241Z,14.37
2018-11-13T08:07:02.706Z,14.50
2018-11-13T08:09:29.796Z,17.03
2018-11-13T08:11:56.924Z,14.77
2018-11-13T08:14:24.028Z,13.67
2018-11-13T08:16:51.112Z,13.70
2018-11-13T08:19:18.209Z,16.07
2018-11-13T08:21:45.348Z,13.23
2018-11-13T08:24:12.425Z,11.30
2018-11-13T08:26:39.505Z,12.43
2018-11-13T08:29:06.680Z,12.83
2018-11-13T08:31:33.791Z,14.07
2018-11-13T08:34:00.877Z,14.63
2018-11-13T08:36:27.977Z,14.23
2018-11-13T08:38:55.063Z,13.97
2018-11-13T08:41:22.153Z,15.40
2018-11-13T08:43:49.294Z,15.80
2018-11-13T08:46:16.372Z,12.47
2018-11-13T08:48:43.465Z,14.63
2018-11-13T08:51:10.575Z,12.27
2018-11-13T08:53:37.652Z,10.47
2018-11-13T08:56:04.809Z,11.90
2018-11-13T08:58:32.510Z,12.13
2018-11-13T09:00:59.544Z,11.17
2018-11-13T09:03:26.648Z,11.77
2018-11-13T09:05:53.769Z,12.77
2018-11-13T09:08:20.852Z,12.30
2018-11-13T09:10:47.923Z,11.50
2018-11-13T09:13:14.992Z,11.83
2018-11-13T09:15:42.101Z,12.83
2018-11-13T09:18:09.245Z,14.47
2018-11-13T09:20:36.305Z,11.37
2018-11-13T09:23:03.436Z,13.13
2018-11-13T09:25:30.544Z,13.40
2018-11-13T09:27:57.625Z,10.27
2018-11-13T09:30:25.561Z,15.40
2018-11-13T09:32:52.569Z,16.10
2018-11-13T09:35:19.900Z,12.80
2018-11-13T09:37:47.000Z,14.60
2018-11-13T09:40:16.292Z,12.60
2018-11-13T09:42:44.321Z,10.87
2018-11-13T09:45:12.392Z,9.90
2018-11-13T09:47:39.871Z,10.67
2018-11-13T09:50:08.824Z,12.53
2018-11-13T09:52:36.081Z,12.10
2018-11-13T09:55:04.538Z,10.50
2018-11-13T09:57:31.617Z,10.67
2018-11-13T09:59:58.769Z,10.80
2018-11-13T10:02:26.621Z,8.60
2018-11-13T10:04:53.823Z,12.67
2018-11-13T10:07:19.992Z,9.60
2018-11-13T10:09:47.102Z,9.23
2018-11-13T10:12:14.208Z,8.73
2018-11-13T10:14:41.289Z,10.60
2018-11-13T10:17:08.523Z,7.53
2018-11-13T10:19:35.557Z,6.33
2018-11-13T10:22:02.660Z,6.97
2018-11-13T10:24:29.813Z,10.17
2018-11-13T10:26:56.940Z,12.47
2018-11-13T10:29:23.981Z,10.27
2018-11-13T10:31:51.080Z,7.03
2018-11-13T10:34:18.165Z,6.70
2018-11-13T10:36:45.277Z,7.87
2018-11-13T10:39:12.369Z,7.87
2018-11-13T10:41:39.471Z,8.57
2018-11-13T10:44:06.572Z,7.07
2018-11-13T10:46:33.664Z,6.83
2018-11-13T10:49:01.596Z,5.73
2018-11-13T10:51:28.656Z,7.90
2018-11-13T10:53:55.824Z,6.30
2018-11-13T10:56:22.966Z,5.33
2018-11-13T10:58:50.742Z,5.43
2018-11-13T11:01:23.670Z,8.23
2018-11-13T11:04:00.243Z,6.43
2018-11-13T11:06:28.932Z,8.50
2018-11-13T11:08:56.020Z,3.93
2018-11-13T11:11:23.208Z,5.20
2018-11-13T11:13:50.329Z,6.27
2018-11-13T11:16:17.307Z,10.10
2018-11-13T11:18:44.472Z,4.93
2018-11-13T11:21:11.509Z,4.47
2018-11-13T11:23:38.697Z,5.83
2018-11-13T11:26:05.808Z,5.40
2018-11-13T11:28:32.897Z,4.30
2018-11-13T11:31:00.019Z,4.73
2018-11-13T11:33:27.093Z,9.40
2018-11-13T11:35:54.173Z,4.97
2018-11-13T11:38:21.247Z,5.77
2018-11-13T11:40:48.353Z,4.93
2018-11-13T11:43:15.486Z,5.07
2018-11-13T11:45:42.533Z,6.80
2018-11-13T11:48:09.622Z,5.90
2018-11-13T11:50:36.769Z,6.80
2018-11-13T11:53:03.884Z,5.93
2018-11-13T11:55:30.960Z,7.67
2018-11-13T11:57:58.064Z,7.20
2018-11-13T12:00:31.050Z,9.00
2018-11-13T12:02:58.133Z,7.33
2018-11-13T12:05:25.233Z,7.20
2018-11-13T12:07:52.310Z,6.40
2018-11-13T12:10:19.410Z,8.17
2018-11-13T12:12:46.508Z,5.80
2018-11-13T12:15:13.737Z,5.23
2018-11-13T12:17:41.312Z,6.23
2018-11-13T12:20:10.025Z,7.27
2018-11-13T12:22:37.112Z,3.37
2018-11-13T12:25:06.404Z,5.00
2018-11-13T12:27:33.485Z,4.53
2018-11-13T12:30:00.578Z,6.30
2018-11-13T12:32:27.663Z,5.07
2018-11-13T12:34:54.757Z,5.90
2018-11-13T12:37:21.868Z,7.27
2018-11-13T12:39:48.997Z,3.90
2018-11-13T12:42:16.114Z,4.87
2018-11-13T12:44:43.188Z,5.87
2018-11-13T12:47:10.287Z,4.33
2018-11-13T12:49:37.389Z,5.60
2018-11-13T12:52:10.192Z,6.90
2018-11-13T12:54:37.265Z,4.57
2018-11-13T12:57:04.544Z,5.27
2018-11-13T12:59:31.640Z,4.83
2018-11-13T13:01:58.779Z,6.03
2018-11-13T13:04:25.836Z,5.47
2018-11-13T13:06:52.917Z,6.30
2018-11-13T13:09:20.036Z,6.43
2018-11-13T13:11:47.127Z,5.50
2018-11-13T13:14:15.509Z,5.50
2018-11-13T13:16:42.641Z,4.37
2018-11-13T13:19:09.756Z,10.50
2018-11-13T13:21:36.881Z,7.20
2018-11-13T13:24:04.153Z,8.00
2018-11-13T13:26:31.252Z,5.50
2018-11-13T13:28:58.362Z,9.40
2018-11-13T13:31:25.472Z,6.17
2018-11-13T13:33:52.609Z,5.67
2018-11-13T13:36:19.721Z,5.73
2018-11-13T13:38:46.955Z,7.57
2018-11-13T13:41:13.942Z,6.87
2018-11-13T13:43:41.053Z,3.77
2018-11-13T13:46:08.176Z,4.10
2018-11-13T13:48:35.282Z,8.13
2018-11-13T13:51:02.382Z,10.40
2018-11-13T13:53:29.494Z,5.63
2018-11-13T13:55:56.594Z,4.97
2018-11-13T13:58:24.400Z,7.17
2018-11-13T14:00:52.220Z,7.67
2018-11-13T14:03:19.236Z,8.27
2018-11-13T14:05:46.833Z,5.73
2018-11-13T14:08:14.649Z,7.87
2018-11-13T14:10:42.108Z,5.00
2018-11-13T14:13:09.529Z,8.55
2018-11-13T14:15:36.746Z,7.20
2018-11-13T14:18:03.753Z,8.43
2018-11-13T14:20:30.856Z,7.07
2018-11-13T14:22:57.961Z,5.30
2018-11-13T14:25:25.089Z,7.20
2018-11-13T14:27:52.181Z,8.10
2018-11-13T14:30:24.423Z,7.90
2018-11-13T14:32:52.180Z,10.37
2018-11-13T14:35:19.341Z,6.67
2018-11-13T14:37:46.993Z,8.40
2018-11-13T14:40:24.374Z,7.47
2018-11-13T14:42:51.497Z,8.63
2018-11-13T14:45:19.613Z,8.67
2018-11-13T14:47:47.485Z,6.63
2018-11-13T14:50:16.281Z,9.93
2018-11-13T14:52:43.832Z,9.43
2018-11-13T14:55:13.732Z,9.40
2018-11-13T14:57:40.964Z,6.80
2018-11-13T15:00:11.520Z,6.70
2018-11-13T15:02:39.193Z,7.30
2018-11-13T15:05:07.464Z,7.90
2018-11-13T15:07:34.576Z,7.17
2018-11-13T15:10:02.443Z,8.53
2018-11-13T15:12:29.537Z,9.33
2018-11-13T15:14:56.629Z,9.37
2018-11-13T15:17:23.721Z,9.57
2018-11-13T15:19:50.836Z,5.77
2018-11-13T15:22:17.953Z,8.30
2018-11-13T15:24:45.021Z,9.33
2018-11-13T15:27:13.125Z,8.20
2018-11-13T15:29:40.224Z,6.73
2018-11-13T15:32:07.698Z,5.87
2018-11-13T15:34:34.785Z,8.53
2018-11-13T15:37:01.865Z,9.13
2018-11-13T15:39:28.954Z,10.90
2018-11-13T15:41:56.044Z,9.87
2018-11-13T15:44:23.174Z,7.93
2018-11-13T15:46:50.232Z,8.30
2018-11-13T15:49:17.325Z,9.23
2018-11-13T15:51:44.530Z,8.87
2018-11-13T15:54:11.509Z,8.03
2018-11-13T15:56:38.610Z,11.60
2018-11-13T15:59:05.693Z,7.30
2018-11-13T16:01:32.836Z,8.33
2018-11-13T16:03:59.929Z,12.40
2018-11-13T16:06:27.083Z,9.77
2018-11-13T16:08:54.101Z,12.80
2018-11-13T16:11:21.187Z,11.97
2018-11-13T16:13:48.272Z,13.20
2018-11-13T16:16:15.391Z,11.00
2018-11-13T16:18:42.556Z,13.30
2018-11-13T16:21:09.629Z,8.53
2018-11-13T16:23:36.644Z,12.40
2018-11-13T16:26:04.205Z,8.33
2018-11-13T16:28:31.298Z,9.77
2018-11-13T16:30:58.538Z,9.60
2018-11-13T16:33:25.489Z,12.83
2018-11-13T16:35:52.625Z,9.30
2018-11-13T16:38:19.857Z,9.67
2018-11-13T16:40:46.893Z,7.77
2018-11-13T16:43:14.002Z,7.87
2018-11-13T16:45:41.130Z,12.80
2018-11-13T16:48:08.299Z,9.67
2018-11-13T16:50:36.504Z,9.93
2018-11-13T16:53:04.197Z,13.20
2018-11-13T16:55:36.916Z,12.47
2018-11-13T16:58:05.388Z,8.50
2018-11-13T17:00:32.564Z,10.60
2018-11-13T17:02:59.690Z,10.37
2018-11-13T17:05:27.613Z,15.43
2018-11-13T17:07:54.662Z,10.77
2018-11-13T17:10:30.520Z,11.00
2018-11-13T17:12:58.362Z,10.03
2018-11-13T17:15:26.809Z,8.53
2018-11-13T17:17:55.114Z,9.40
2018-11-13T17:20:22.346Z,6.23
2018-11-13T17:22:49.994Z,6.70
2018-11-13T17:25:18.472Z,9.07
2018-11-13T17:27:46.544Z,9.30
2018-11-13T17:30:19.254Z,10.23
2018-11-13T17:32:45.150Z,11.63
2018-11-13T17:35:13.675Z,9.07
2018-11-13T17:37:41.126Z,12.07
2018-11-13T17:40:13.505Z,10.20
2018-11-13T17:42:40.916Z,8.93
2018-11-13T17:45:10.281Z,14.37
2018-11-13T17:47:37.497Z,9.80
2018-11-13T17:50:09.757Z,11.43
2018-11-13T17:52:36.843Z,9.10
2018-11-13T17:55:04.457Z,13.03
2018-11-13T17:57:31.564Z,11.63
2018-11-13T17:59:58.661Z,12.67
2018-11-13T18:02:25.792Z,12.00
2018-11-13T18:04:52.884Z,13.90
2018-11-13T18:07:19.989Z,15.90
2018-11-13T18:09:47.049Z,13.17
2018-11-13T18:12:14.153Z,11.20
2018-11-13T18:14:41.260Z,12.90
2018-11-13T18:17:08.393Z,11.93
2018-11-13T18:19:35.502Z,12.53
2018-11-13T18:22:02.767Z,10.13
2018-11-13T18:24:29.718Z,11.63
2018-11-13T18:26:56.809Z,14.13
2018-11-13T18:29:23.885Z,11.50
2018-11-13T18:31:50.981Z,11.90
2018-11-13T18:34:18.077Z,14.07
2018-11-13T18:36:45.176Z,10.07
2018-11-13T18:39:12.462Z,12.23
2018-11-13T18:41:39.381Z,10.57
2018-11-13T18:44:06.753Z,14.47
2018-11-13T18:46:33.840Z,13.70
2018-11-13T18:49:00.929Z,12.40
2018-11-13T18:51:28.284Z,15.53
2018-11-13T18:53:55.381Z,16.57
2018-11-13T18:56:22.481Z,18.57
2018-11-13T18:58:49.617Z,13.10
2018-11-13T19:01:16.738Z,13.07
2018-11-13T19:03:45.187Z,14.33
2018-11-13T19:06:12.294Z,11.50
2018-11-13T19:08:39.404Z,16.93
2018-11-13T19:11:06.627Z,17.40
2018-11-13T19:13:33.637Z,21.57
2018-11-13T19:16:02.926Z,17.60
2018-11-13T19:18:30.382Z,15.00
2018-11-13T19:20:57.234Z,20.57
2018-11-13T19:23:24.336Z,17.50
2018-11-13T19:25:51.527Z,15.23
2018-11-13T19:28:18.622Z,20.03
2018-11-13T19:30:45.784Z,16.80
2018-11-13T19:33:12.876Z,16.17
2018-11-13T19:35:40.241Z,18.93
2018-11-13T19:38:07.088Z,17.20
2018-11-13T19:40:34.800Z,19.67
2018-11-13T19:43:03.486Z,16.73
2018-11-13T19:45:30.574Z,21.30
2018-11-13T19:47:57.652Z,18.00
2018-11-13T19:50:26.290Z,20.13
2018-11-13T19:52:53.180Z,26.40
2018-11-13T19:55:20.965Z,22.27
2018-11-13T19:57:48.525Z,22.87
2018-11-13T20:00:17.932Z,20.83
2018-11-13T20:02:45.828Z,19.73
2018-11-13T20:05:12.937Z,18.50
2018-11-13T20:07:40.020Z,22.67
2018-11-13T20:10:11.027Z,22.53
2018-11-13T20:12:38.134Z,23.37
2018-11-13T20:15:05.984Z,18.97
2018-11-13T20:17:33.072Z,20.40
2018-11-13T20:20:00.180Z,24.83
2018-11-13T20:22:27.570Z,20.65
2018-11-13T20:24:54.376Z,21.73
2018-11-13T20:27:21.469Z,25.33
2018-11-13T20:29:48.556Z,24.43
2018-11-13T20:32:15.653Z,19.25
2018-11-13T20:34:42.749Z,26.90
2018-11-13T20:37:09.849Z,21.63
2018-11-13T20:39:36.969Z,22.20
2018-11-13T20:42:04.089Z,20.03
2018-11-13T20:44:31.197Z,22.30
2018-11-13T20:46:58.273Z,20.13
2018-11-13T20:49:25.368Z,16.93
2018-11-13T20:51:52.444Z,22.60
2018-11-13T20:54:19.572Z,19.23
2018-11-13T20:56:46.668Z,21.97
2018-11-13T20:59:13.773Z,18.17
2018-11-13T21:01:40.918Z,23.30
2018-11-13T21:04:07.961Z,19.87
2018-11-13T21:06:35.052Z,17.77
2018-11-13T21:09:02.193Z,28.25
2018-11-13T21:11:29.335Z,20.73
2018-11-13T21:13:56.417Z,23.33
2018-11-13T21:16:23.523Z,16.40
2018-11-13T21:18:50.628Z,21.33
2018-11-13T21:21:17.741Z,21.30
2018-11-13T21:23:44.936Z,22.90
2018-11-13T21:26:11.962Z,20.37
2018-11-13T21:28:39.049Z,21.30
2018-11-13T21:31:06.153Z,18.00
2018-11-13T21:33:33.263Z,26.37
2018-11-13T21:36:00.368Z,22.50
2018-11-13T21:38:27.491Z,21.77
2018-11-13T21:40:54.612Z,22.93
2018-11-13T21:43:21.735Z,24.33
2018-11-13T21:45:48.832Z,18.87
2018-11-13T21:48:15.940Z,23.33
2018-11-13T21:50:43.067Z,22.00
2018-11-13T21:53:10.144Z,20.53
2018-11-13T21:55:37.239Z,22.93
2018-11-13T21:58:04.389Z,21.47
2018-11-13T22:00:32.892Z,19.93
2018-11-13T22:03:02.327Z,18.23
2018-11-13T22:05:30.075Z,26.33
2018-11-13T22:07:57.188Z,22.83
2018-11-13T22:10:24.302Z,20.30
2018-11-13T22:12:51.406Z,20.27
2018-11-13T22:15:19.911Z,19.10
2018-11-13T22:17:47.017Z,17.17
2018-11-13T22:20:15.412Z,18.87
2018-11-13T22:22:42.532Z,17.00
2018-11-13T22:25:13.211Z,23.33
2018-11-13T22:27:40.963Z,19.00
2018-11-13T22:30:10.058Z,21.37
2018-11-13T22:32:37.824Z,18.63
2018-11-13T22:35:06.165Z,21.90
2018-11-13T22:37:33.292Z,22.17
2018-11-13T22:40:00.429Z,23.30
2018-11-13T22:42:27.521Z,19.03
2018-11-13T22:44:54.611Z,23.43
2018-11-13T22:47:21.710Z,18.77
2018-11-13T22:49:48.801Z,24.10
2018-11-13T22:52:15.876Z,21.53
2018-11-13T22:54:42.982Z,20.57
2018-11-13T22:57:10.125Z,21.13
2018-11-13T22:59:37.193Z,19.37
2018-11-13T23:02:04.292Z,20.17
2018-11-13T23:04:31.392Z,20.33
2018-11-13T23:06:58.493Z,24.10
2018-11-13T23:09:25.586Z,21.63
2018-11-13T23:11:52.675Z,19.33
2018-11-13T23:14:19.760Z,22.23
2018-11-13T23:16:46.852Z,21.13
2018-11-13T23:19:13.960Z,20.13
2018-11-13T23:21:41.064Z,18.80
2018-11-13T23:24:08.148Z,17.30
2018-11-13T23:26:35.322Z,21.07
2018-11-13T23:29:02.353Z,18.53
2018-11-13T23:31:29.745Z,18.17
2018-11-13T23:33:56.552Z,21.57
2018-11-13T23:36:23.648Z,21.93
2018-11-13T23:38:50.751Z,20.53
2018-11-13T23:41:17.860Z,19.53
2018-11-13T23:43:44.948Z,16.73
2018-11-13T23:46:12.037Z,19.07
2018-11-13T23:48:39.140Z,19.23
2018-11-13T23:51:06.292Z,18.40
2018-11-13T23:53:33.390Z,23.67
2018-11-13T23:56:00.456Z,20.10
2018-11-13T23:58:27.545Z,21.07
